sensor_id;sensor_type;location;lat;lon;timestamp;temperature;humidity
14521;DHT22;7347;50.844;4.490;2022-11-23T06:45:57;7.10;99.90
14521;DHT22;7347;50.844;4.490;2022-11-23T06:48:24;7.10;99.90
14521;DHT22;7347;50.844;4.490;2022-11-23T06:50:51;7.10;99.90
14521;DHT22;7347;50.844;4.490;2022-11-23T06:53:19;7.10;99.90
14521;DHT22;7347;50.844;4.490;2022-11-23T06:55:45;7.00;99.90
14521;DHT22;7347;50.844;4.490;2022-11-23T06:58:12;7.10;99.90
14521;DHT22;7347;50.844;4.490;2022-11-23T07:00:39;7.00;99.90
14521;DHT22;7347;50.844;4.490;2022-11-23T07:03:11;7.00;99.90
14521;DHT22;7347;50.844;4.490;2022-11-23T07:05:42;7.00;99.90
14521;DHT22;7347;50.844;4.490;2022-11-23T07:08:09;6.90;99.90
14521;DHT22;7347;50.844;4.490;2022-11-23T07:10:36;6.90;99.90
14521;DHT22;7347;50.844;4.490;2022-11-23T07:13:03;6.90;99.90
14521;DHT22;7347;50.844;4.490;2022-11-23T07:15:31;6.90;99.90
14521;DHT22;7347;50.844;4.490;2022-11-23T07:17:58;6.90;99.90
14521;DHT22;7347;50.844;4.490;2022-11-23T07:20:26;6.80;99.90
14521;DHT22;7347;50.844;4.490;2022-11-23T07:22:58;6.80;99.90
14521;DHT22;7347;50.844;4.490;2022-11-23T07:25:26;6.80;99.90
14521;DHT22;7347;50.844;4.490;2022-11-23T07:27:54;6.80;99.90
14521;DHT22;7347;50.844;4.490;2022-11-23T07:30:21;6.80;99.90
14521;DHT22;7347;50.844;4.490;2022-11-23T07:32:48;6.80;99.90
14521;DHT22;7347;50.844;4.490;2022-11-23T07:35:15;6.90;99.90
14521;DHT22;7347;50.844;4.490;2022-11-23T07:37:44;6.90;99.90
14521;DHT22;7347;50.844;4.490;2022-11-23T07:40:11;6.80;99.90
14521;DHT22;7347;50.844;4.490;2022-11-23T07:42:38;6.80;99.90
14521;DHT22;7347;50.844;4.490;2022-11-23T07:45:06;6.80;99.90
14521;DHT22;7347;50.844;4.490;2022-11-23T07:47:33;6.90;99.90
14521;DHT22;7347;50.844;4.490;2022-11-23T07:50:00;7.00;99.90
14521;DHT22;7347;50.844;4.490;2022-11-23T07:52:27;7.00;99.90
14521;DHT22;7347;50.844;4.490;2022-11-23T07:54:55;7.10;99.90
14521;DHT22;7347;50.844;4.490;2022-11-23T07:57:22;7.10;99.90
14521;DHT22;7347;50.844;4.490;2022-11-23T07:59:49;6.90;99.90
14521;DHT22;7347;50.844;4.490;2022-11-23T08:02:15;7.00;99.90
14521;DHT22;7347;50.844;4.490;2022-11-23T08:04:42;7.10;99.90
14521;DHT22;7347;50.844;4.490;2022-11-23T08:07:09;7.10;99.90
14521;DHT22;7347;50.844;4.490;2022-11-23T08:09:36;7.10;99.90
14521;DHT22;7347;50.844;4.490;2022-11-23T08:12:05;7.00;99.90
14521;DHT22;7347;50.844;4.490;2022-11-23T08:14:32;7.00;99.90
14521;DHT22;7347;50.844;4.490;2022-11-23T08:16:59;7.00;99.90
14521;DHT22;7347;50.844;4.490;2022-11-23T08:19:25;6.90;99.90
14521;DHT22;7347;50.844;4.490;2022-11-23T08:21:52;7.00;99.90
14521;DHT22;7347;50.844;4.490;2022-11-23T08:24:19;7.10;99.90
14521;DHT22;7347;50.844;4.490;2022-11-23T08:26:46;7.10;99.90
14521;DHT22;7347;50.844;4.490;2022-11-23T08:29:14;7.10;99.90
14521;DHT22;7347;50.844;4.490;2022-11-23T08:31:41;7.20;99.90
14521;DHT22;7347;50.844;4.490;2022-11-23T08:34:08;7.30;99.90
14521;DHT22;7347;50.844;4.490;2022-11-23T08:36:36;7.40;99.90
14521;DHT22;7347;50.844;4.490;2022-11-23T08:39:02;7.50;99.90
14521;DHT22;7347;50.844;4.490;2022-11-23T08:41:29;7.60;99.90
14521;DHT22;7347;50.844;4.490;2022-11-23T08:43:56;7.70;99.90
14521;DHT22;7347;50.844;4.490;2022-11-23T08:46:24;7.80;99.90
14521;DHT22;7347;50.844;4.490;2022-11-23T08:48:51;7.90;99.90
14521;DHT22;7347;50.844;4.490;2022-11-23T08:51:18;7.90;99.90
14521;DHT22;7347;50.844;4.490;2022-11-23T08:53:47;8.00;99.90
14521;DHT22;7347;50.844;4.490;2022-11-23T08:56:14;8.10;99.90
14521;DHT22;7347;50.844;4.490;2022-11-23T08:58:41;8.10;99.90
14521;DHT22;7347;50.844;4.490;2022-11-23T09:01:08;8.00;99.90
14521;DHT22;7347;50.844;4.490;2022-11-23T09:03:36;8.10;99.90
14521;DHT22;7347;50.844;4.490;2022-11-23T09:06:03;8.20;99.90
14521;DHT22;7347;50.844;4.490;2022-11-23T09:08:30;8.40;99.90
14521;DHT22;7347;50.844;4.490;2022-11-23T09:10:58;8.50;99.90
14521;DHT22;7347;50.844;4.490;2022-11-23T09:13:26;8.50;99.90
14521;DHT22;7347;50.844;4.490;2022-11-23T09:15:56;8.60;99.90
14521;DHT22;7347;50.844;4.490;2022-11-23T09:18:23;8.50;99.90
14521;DHT22;7347;50.844;4.490;2022-11-23T09:20:51;8.70;99.90
14521;DHT22;7347;50.844;4.490;2022-11-23T09:23:18;8.60;99.90
14521;DHT22;7347;50.844;4.490;2022-11-23T09:25:45;8.70;99.90
14521;DHT22;7347;50.844;4.490;2022-11-23T09:28:15;8.70;99.90
14521;DHT22;7347;50.844;4.490;2022-11-23T09:30:44;8.70;99.90
14521;DHT22;7347;50.844;4.490;2022-11-23T09:33:12;8.60;99.90
14521;DHT22;7347;50.844;4.490;2022-11-23T09:35:39;8.70;99.90
14521;DHT22;7347;50.844;4.490;2022-11-23T09:38:07;8.80;99.90
14521;DHT22;7347;50.844;4.490;2022-11-23T09:40:36;8.80;99.90
14521;DHT22;7347;50.844;4.490;2022-11-23T09:43:16;8.70;99.90
14521;DHT22;7347;50.844;4.490;2022-11-23T09:45:53;8.70;99.90
14521;DHT22;7347;50.844;4.490;2022-11-23T09:48:34;8.70;99.90
14521;DHT22;7347;50.844;4.490;2022-11-23T09:51:10;8.80;99.90
14521;DHT22;7347;50.844;4.490;2022-11-23T09:53:44;8.80;99.90
14521;DHT22;7347;50.844;4.490;2022-11-23T09:56:15;9.00;99.90
14521;DHT22;7347;50.844;4.490;2022-11-23T09:58:44;9.10;99.90
14521;DHT22;7347;50.844;4.490;2022-11-23T10:01:13;9.20;99.90
14521;DHT22;7347;50.844;4.490;2022-11-23T10:03:41;9.20;99.90
14521;DHT22;7347;50.844;4.490;2022-11-23T10:06:16;9.40;99.90
14521;DHT22;7347;50.844;4.490;2022-11-23T10:08:56;9.50;99.90
14521;DHT22;7347;50.844;4.490;2022-11-23T10:11:41;9.40;99.90
14521;DHT22;7347;50.844;4.490;2022-11-23T10:14:21;9.20;99.90
14521;DHT22;7347;50.844;4.490;2022-11-23T10:17:00;9.20;99.90
14521;DHT22;7347;50.844;4.490;2022-11-23T10:19:41;9.40;99.90
14521;DHT22;7347;50.844;4.490;2022-11-23T10:22:18;9.30;99.90
14521;DHT22;7347;50.844;4.490;2022-11-23T10:24:50;9.20;99.90
14521;DHT22;7347;50.844;4.490;2022-11-23T10:27:19;9.20;99.90
14521;DHT22;7347;50.844;4.490;2022-11-23T10:29:47;9.20;99.90
14521;DHT22;7347;50.844;4.490;2022-11-23T10:32:24;9.30;99.90
14521;DHT22;7347;50.844;4.490;2022-11-23T10:34:59;9.30;99.90
14521;DHT22;7347;50.844;4.490;2022-11-23T10:37:27;9.40;99.90
14521;DHT22;7347;50.844;4.490;2022-11-23T10:39:55;9.30;99.90
14521;DHT22;7347;50.844;4.490;2022-11-23T10:42:27;9.30;99.90
14521;DHT22;7347;50.844;4.490;2022-11-23T10:44:57;9.30;99.90
14521;DHT22;7347;50.844;4.490;2022-11-23T10:47:39;9.20;99.90
14521;DHT22;7347;50.844;4.490;2022-11-23T10:50:20;9.20;99.90
14521;DHT22;7347;50.844;4.490;2022-11-23T10:52:53;9.20;99.90
14521;DHT22;7347;50.844;4.490;2022-11-23T10:55:25;9.30;99.90
14521;DHT22;7347;50.844;4.490;2022-11-23T10:57:53;9.30;99.90
14521;DHT22;7347;50.844;4.490;2022-11-23T11:00:21;9.40;99.90
14521;DHT22;7347;50.844;4.490;2022-11-23T11:02:50;9.50;99.90
14521;DHT22;7347;50.844;4.490;2022-11-23T11:05:28;9.60;99.90
14521;DHT22;7347;50.844;4.490;2022-11-23T11:07:56;9.70;99.90
14521;DHT22;7347;50.844;4.490;2022-11-23T11:10:34;9.80;99.90
14521;DHT22;7347;50.844;4.490;2022-11-23T11:13:02;9.90;99.90
14521;DHT22;7347;50.844;4.490;2022-11-23T11:15:29;10.00;99.90
14521;DHT22;7347;50.844;4.490;2022-11-23T11:17:57;10.10;99.90
14521;DHT22;7347;50.844;4.490;2022-11-23T11:20:30;10.10;99.90
14521;DHT22;7347;50.844;4.490;2022-11-23T11:23:00;10.20;99.90
14521;DHT22;7347;50.844;4.490;2022-11-23T11:25:31;10.20;99.90
14521;DHT22;7347;50.844;4.490;2022-11-23T11:28:01;10.30;99.90
14521;DHT22;7347;50.844;4.490;2022-11-23T11:30:35;10.50;99.90
14521;DHT22;7347;50.844;4.490;2022-11-23T11:33:10;10.60;99.90
14521;DHT22;7347;50.844;4.490;2022-11-23T11:35:41;10.50;99.90
14521;DHT22;7347;50.844;4.490;2022-11-23T11:38:12;10.60;99.90
14521;DHT22;7347;50.844;4.490;2022-11-23T11:40:45;10.60;99.90
14521;DHT22;7347;50.844;4.490;2022-11-23T11:43:17;10.70;99.90
14521;DHT22;7347;50.844;4.490;2022-11-23T11:45:47;10.70;99.90
14521;DHT22;7347;50.844;4.490;2022-11-23T11:48:17;10.70;99.90
14521;DHT22;7347;50.844;4.490;2022-11-23T11:50:49;10.70;99.90
14521;DHT22;7347;50.844;4.490;2022-11-23T11:53:19;10.70;99.90
14521;DHT22;7347;50.844;4.490;2022-11-23T11:55:52;10.70;99.90
14521;DHT22;7347;50.844;4.490;2022-11-23T11:58:23;10.80;99.90
14521;DHT22;7347;50.844;4.490;2022-11-23T12:00:55;10.90;99.90
14521;DHT22;7347;50.844;4.490;2022-11-23T12:03:32;10.90;99.90
14521;DHT22;7347;50.844;4.490;2022-11-23T12:06:07;10.90;99.90
14521;DHT22;7347;50.844;4.490;2022-11-23T12:08:42;11.10;99.90
14521;DHT22;7347;50.844;4.490;2022-11-23T12:11:13;11.20;99.90
14521;DHT22;7347;50.844;4.490;2022-11-23T12:13:42;11.10;99.90
14521;DHT22;7347;50.844;4.490;2022-11-23T12:16:17;11.00;99.90
14521;DHT22;7347;50.844;4.490;2022-11-23T12:19:12;11.00;99.90
14521;DHT22;7347;50.844;4.490;2022-11-23T12:22:06;10.80;99.90
14521;DHT22;7347;50.844;4.490;2022-11-23T12:24:58;10.80;99.90
14521;DHT22;7347;50.844;4.490;2022-11-23T12:27:36;10.90;99.90
14521;DHT22;7347;50.844;4.490;2022-11-23T12:30:17;10.80;99.90
14521;DHT22;7347;50.844;4.490;2022-11-23T12:36:05;10.70;99.90
14521;DHT22;7347;50.844;4.490;2022-11-23T12:38:39;10.40;99.90
14521;DHT22;7347;50.844;4.490;2022-11-23T12:41:22;10.10;99.90
14521;DHT22;7347;50.844;4.490;2022-11-23T12:46:44;10.00;99.90
14521;DHT22;7347;50.844;4.490;2022-11-23T12:49:23;9.80;99.90
14521;DHT22;7347;50.844;4.490;2022-11-23T12:54:52;9.80;99.90
14521;DHT22;7347;50.844;4.490;2022-11-23T12:57:23;9.80;99.90
14521;DHT22;7347;50.844;4.490;2022-11-23T12:59:57;9.60;99.90
14521;DHT22;7347;50.844;4.490;2022-11-23T13:03:01;9.50;99.90
14521;DHT22;7347;50.844;4.490;2022-11-23T13:05:59;9.50;99.90
14521;DHT22;7347;50.844;4.490;2022-11-23T13:08:52;9.30;99.90
14521;DHT22;7347;50.844;4.490;2022-11-23T13:11:30;9.30;99.90
14521;DHT22;7347;50.844;4.490;2022-11-23T13:14:12;9.30;99.90
14521;DHT22;7347;50.844;4.490;2022-11-23T13:16:58;9.20;99.90
14521;DHT22;7347;50.844;4.490;2022-11-23T13:19:38;9.20;99.90
14521;DHT22;7347;50.844;4.490;2022-11-23T13:22:10;9.20;99.90
14521;DHT22;7347;50.844;4.490;2022-11-23T13:24:59;9.10;99.90
14521;DHT22;7347;50.844;4.490;2022-11-23T13:27:53;9.10;99.90
14521;DHT22;7347;50.844;4.490;2022-11-23T13:30:26;9.10;99.90
14521;DHT22;7347;50.844;4.490;2022-11-23T13:32:57;9.00;99.90
14521;DHT22;7347;50.844;4.490;2022-11-23T13:35:46;9.00;99.90
14521;DHT22;7347;50.844;4.490;2022-11-23T13:38:25;8.90;99.90
14521;DHT22;7347;50.844;4.490;2022-11-23T13:40:52;8.90;99.90
14521;DHT22;7347;50.844;4.490;2022-11-23T13:43:22;8.90;99.90
14521;DHT22;7347;50.844;4.490;2022-11-23T13:46:17;8.90;99.90
14521;DHT22;7347;50.844;4.490;2022-11-23T13:48:49;8.80;99.90
14521;DHT22;7347;50.844;4.490;2022-11-23T13:51:25;8.80;99.90
14521;DHT22;7347;50.844;4.490;2022-11-23T13:53:56;8.70;99.90
14521;DHT22;7347;50.844;4.490;2022-11-23T13:56:29;8.70;99.90
14521;DHT22;7347;50.844;4.490;2022-11-23T13:58:58;8.60;99.90
14521;DHT22;7347;50.844;4.490;2022-11-23T14:04:27;8.60;99.90
14521;DHT22;7347;50.844;4.490;2022-11-23T14:06:56;8.60;99.90
14521;DHT22;7347;50.844;4.490;2022-11-23T14:09:28;8.50;99.90
14521;DHT22;7347;50.844;4.490;2022-11-23T14:12:04;8.50;99.90
14521;DHT22;7347;50.844;4.490;2022-11-23T14:14:49;8.50;99.90
14521;DHT22;7347;50.844;4.490;2022-11-23T14:17:29;8.50;99.90
14521;DHT22;7347;50.844;4.490;2022-11-23T14:20:34;8.50;99.90
14521;DHT22;7347;50.844;4.490;2022-11-23T14:26:04;8.60;99.90
14521;DHT22;7347;50.844;4.490;2022-11-23T14:28:44;8.60;99.90
14521;DHT22;7347;50.844;4.490;2022-11-23T14:31:20;8.70;99.90
14521;DHT22;7347;50.844;4.490;2022-11-23T14:33:53;8.70;99.90
14521;DHT22;7347;50.844;4.490;2022-11-23T14:36:30;8.70;99.90
14521;DHT22;7347;50.844;4.490;2022-11-23T14:39:34;8.70;99.90
14521;DHT22;7347;50.844;4.490;2022-11-23T14:42:10;8.70;99.90
14521;DHT22;7347;50.844;4.490;2022-11-23T14:44:39;8.60;99.90
14521;DHT22;7347;50.844;4.490;2022-11-23T14:47:09;8.70;99.90
14521;DHT22;7347;50.844;4.490;2022-11-23T14:49:36;8.70;99.90
14521;DHT22;7347;50.844;4.490;2022-11-23T14:52:17;8.80;99.90
14521;DHT22;7347;50.844;4.490;2022-11-23T14:54:47;8.80;99.90
14521;DHT22;7347;50.844;4.490;2022-11-23T14:57:14;9.00;99.90
14521;DHT22;7347;50.844;4.490;2022-11-23T14:59:46;8.90;99.90
14521;DHT22;7347;50.844;4.490;2022-11-23T15:02:16;9.00;99.90
14521;DHT22;7347;50.844;4.490;2022-11-23T15:05:02;8.90;99.90
14521;DHT22;7347;50.844;4.490;2022-11-23T15:07:45;8.90;99.90
14521;DHT22;7347;50.844;4.490;2022-11-23T15:10:27;8.80;99.90
14521;DHT22;7347;50.844;4.490;2022-11-23T15:12:55;8.70;99.90
14521;DHT22;7347;50.844;4.490;2022-11-23T15:15:24;8.70;99.90
14521;DHT22;7347;50.844;4.490;2022-11-23T15:17:52;8.70;99.90
14521;DHT22;7347;50.844;4.490;2022-11-23T15:20:20;8.70;99.90
14521;DHT22;7347;50.844;4.490;2022-11-23T15:22:49;8.70;99.90
14521;DHT22;7347;50.844;4.490;2022-11-23T15:25:17;8.70;99.90
14521;DHT22;7347;50.844;4.490;2022-11-23T15:27:45;8.80;99.90
14521;DHT22;7347;50.844;4.490;2022-11-23T15:30:15;8.80;99.90
14521;DHT22;7347;50.844;4.490;2022-11-23T15:32:42;8.80;99.90
14521;DHT22;7347;50.844;4.490;2022-11-23T15:35:12;8.80;99.90
14521;DHT22;7347;50.844;4.490;2022-11-23T15:37:43;8.80;99.90
14521;DHT22;7347;50.844;4.490;2022-11-23T15:40:14;8.80;99.90
14521;DHT22;7347;50.844;4.490;2022-11-23T15:42:42;8.80;99.90
14521;DHT22;7347;50.844;4.490;2022-11-23T15:45:35;8.80;99.90
14521;DHT22;7347;50.844;4.490;2022-11-23T15:48:04;8.80;99.90
14521;DHT22;7347;50.844;4.490;2022-11-23T15:50:31;8.70;99.90
14521;DHT22;7347;50.844;4.490;2022-11-23T15:52:59;8.70;99.90
14521;DHT22;7347;50.844;4.490;2022-11-23T15:55:28;8.60;99.90
14521;DHT22;7347;50.844;4.490;2022-11-23T15:57:56;8.50;99.90
14521;DHT22;7347;50.844;4.490;2022-11-23T16:00:24;8.50;99.90
14521;DHT22;7347;50.844;4.490;2022-11-23T16:02:51;8.50;99.90
14521;DHT22;7347;50.844;4.490;2022-11-23T16:05:20;8.50;99.90
14521;DHT22;7347;50.844;4.490;2022-11-23T16:07:49;8.40;99.90
14521;DHT22;7347;50.844;4.490;2022-11-23T16:10:18;8.30;99.90
14521;DHT22;7347;50.844;4.490;2022-11-23T16:12:48;8.30;99.90
14521;DHT22;7347;50.844;4.490;2022-11-23T16:15:40;8.30;99.90
14521;DHT22;7347;50.844;4.490;2022-11-23T16:18:19;8.20;99.90
14521;DHT22;7347;50.844;4.490;2022-11-23T16:20:49;8.20;99.90
14521;DHT22;7347;50.844;4.490;2022-11-23T16:23:19;8.20;99.90
14521;DHT22;7347;50.844;4.490;2022-11-23T16:25:52;8.20;99.90
14521;DHT22;7347;50.844;4.490;2022-11-23T16:28:27;8.20;99.90
14521;DHT22;7347;50.844;4.490;2022-11-23T16:30:54;8.30;99.90
14521;DHT22;7347;50.844;4.490;2022-11-23T16:33:22;8.20;99.90
14521;DHT22;7347;50.844;4.490;2022-11-23T16:35:49;8.30;99.90
14521;DHT22;7347;50.844;4.490;2022-11-23T16:38:16;8.20;99.90
14521;DHT22;7347;50.844;4.490;2022-11-23T16:40:44;8.30;99.90
14521;DHT22;7347;50.844;4.490;2022-11-23T16:43:14;8.30;99.90
14521;DHT22;7347;50.844;4.490;2022-11-23T16:45:44;8.20;99.90
14521;DHT22;7347;50.844;4.490;2022-11-23T16:48:35;8.20;99.90
14521;DHT22;7347;50.844;4.490;2022-11-23T16:51:02;8.10;99.90
14521;DHT22;7347;50.844;4.490;2022-11-23T16:53:28;8.10;99.90
14521;DHT22;7347;50.844;4.490;2022-11-23T16:55:56;8.10;99.90
14521;DHT22;7347;50.844;4.490;2022-11-23T16:58:25;8.10;99.90
14521;DHT22;7347;50.844;4.490;2022-11-23T17:00:53;8.10;99.90
14521;DHT22;7347;50.844;4.490;2022-11-23T17:03:20;8.10;99.90
14521;DHT22;7347;50.844;4.490;2022-11-23T17:05:48;8.10;99.90
14521;DHT22;7347;50.844;4.490;2022-11-23T17:08:16;8.10;99.90
14521;DHT22;7347;50.844;4.490;2022-11-23T17:10:43;8.10;99.90
14521;DHT22;7347;50.844;4.490;2022-11-23T17:13:13;8.00;99.90
14521;DHT22;7347;50.844;4.490;2022-11-23T17:15:44;8.10;99.90
14521;DHT22;7347;50.844;4.490;2022-11-23T17:18:13;8.10;99.90
14521;DHT22;7347;50.844;4.490;2022-11-23T17:20:40;8.10;99.90
14521;DHT22;7347;50.844;4.490;2022-11-23T17:23:07;8.10;99.90
14521;DHT22;7347;50.844;4.490;2022-11-23T17:25:35;8.10;99.90
14521;DHT22;7347;50.844;4.490;2022-11-23T17:28:04;8.00;99.90
14521;DHT22;7347;50.844;4.490;2022-11-23T17:30:31;8.10;99.90
14521;DHT22;7347;50.844;4.490;2022-11-23T17:32:58;8.10;99.90
14521;DHT22;7347;50.844;4.490;2022-11-23T17:35:27;8.20;99.90
14521;DHT22;7347;50.844;4.490;2022-11-23T17:37:54;8.20;99.90
14521;DHT22;7347;50.844;4.490;2022-11-23T17:40:22;8.30;99.90
14521;DHT22;7347;50.844;4.490;2022-11-23T17:42:50;8.30;99.90
14521;DHT22;7347;50.844;4.490;2022-11-23T17:45:16;8.30;99.90
14521;DHT22;7347;50.844;4.490;2022-11-23T17:47:44;8.30;99.90
14521;DHT22;7347;50.844;4.490;2022-11-23T17:50:13;8.20;99.90
14521;DHT22;7347;50.844;4.490;2022-11-23T17:52:44;8.20;99.90
14521;DHT22;7347;50.844;4.490;2022-11-23T17:55:11;8.20;99.90
14521;DHT22;7347;50.844;4.490;2022-11-23T17:57:38;8.20;99.90
14521;DHT22;7347;50.844;4.490;2022-11-23T18:00:11;8.30;99.90
14521;DHT22;7347;50.844;4.490;2022-11-23T18:02:40;8.30;99.90
14521;DHT22;7347;50.844;4.490;2022-11-23T18:05:07;8.30;99.90
14521;DHT22;7347;50.844;4.490;2022-11-23T18:07:34;8.20;99.90
14521;DHT22;7347;50.844;4.490;2022-11-23T18:10:03;8.30;99.90
14521;DHT22;7347;50.844;4.490;2022-11-23T18:12:29;8.30;99.90
14521;DHT22;7347;50.844;4.490;2022-11-23T18:14:57;8.30;99.90
14521;DHT22;7347;50.844;4.490;2022-11-23T18:17:23;8.30;99.90
14521;DHT22;7347;50.844;4.490;2022-11-23T18:19:50;8.30;99.90
14521;DHT22;7347;50.844;4.490;2022-11-23T18:22:17;8.40;99.90
14521;DHT22;7347;50.844;4.490;2022-11-23T18:24:44;8.50;99.90
14521;DHT22;7347;50.844;4.490;2022-11-23T18:27:13;8.50;99.90
14521;DHT22;7347;50.844;4.490;2022-11-23T18:29:40;8.50;99.90
14521;DHT22;7347;50.844;4.490;2022-11-23T18:32:06;8.50;99.90
14521;DHT22;7347;50.844;4.490;2022-11-23T18:34:33;8.50;99.90
14521;DHT22;7347;50.844;4.490;2022-11-23T18:37:00;8.50;99.90
14521;DHT22;7347;50.844;4.490;2022-11-23T18:39:27;8.60;99.90
14521;DHT22;7347;50.844;4.490;2022-11-23T18:41:54;8.50;99.90
14521;DHT22;7347;50.844;4.490;2022-11-23T18:44:22;8.50;99.90
14521;DHT22;7347;50.844;4.490;2022-11-23T18:46:49;8.50;99.90
14521;DHT22;7347;50.844;4.490;2022-11-23T18:49:16;8.50;99.90
14521;DHT22;7347;50.844;4.490;2022-11-23T18:51:43;8.50;99.90
14521;DHT22;7347;50.844;4.490;2022-11-23T18:54:10;8.60;99.90
14521;DHT22;7347;50.844;4.490;2022-11-23T18:56:37;8.50;99.90
14521;DHT22;7347;50.844;4.490;2022-11-23T18:59:05;8.50;99.90
14521;DHT22;7347;50.844;4.490;2022-11-23T19:01:35;8.60;99.90
14521;DHT22;7347;50.844;4.490;2022-11-23T19:04:02;8.50;99.90
14521;DHT22;7347;50.844;4.490;2022-11-23T19:06:29;8.60;99.90
14521;DHT22;7347;50.844;4.490;2022-11-23T19:08:57;8.60;99.90
14521;DHT22;7347;50.844;4.490;2022-11-23T19:11:26;8.60;99.90
14521;DHT22;7347;50.844;4.490;2022-11-23T19:13:55;8.60;99.90
14521;DHT22;7347;50.844;4.490;2022-11-23T19:16:24;8.60;99.90
14521;DHT22;7347;50.844;4.490;2022-11-23T19:18:56;8.60;99.90
14521;DHT22;7347;50.844;4.490;2022-11-23T19:21:24;8.60;99.90
14521;DHT22;7347;50.844;4.490;2022-11-23T19:23:53;8.70;99.90
14521;DHT22;7347;50.844;4.490;2022-11-23T19:26:20;8.70;99.90
14521;DHT22;7347;50.844;4.490;2022-11-23T19:28:47;8.70;99.90
14521;DHT22;7347;50.844;4.490;2022-11-23T19:31:16;8.80;99.90
14521;DHT22;7347;50.844;4.490;2022-11-23T19:33:44;8.80;99.90
14521;DHT22;7347;50.844;4.490;2022-11-23T19:36:14;8.70;99.90
14521;DHT22;7347;50.844;4.490;2022-11-23T19:38:42;8.70;99.90
14521;DHT22;7347;50.844;4.490;2022-11-23T19:41:09;8.70;99.90
14521;DHT22;7347;50.844;4.490;2022-11-23T19:43:36;8.70;99.90
14521;DHT22;7347;50.844;4.490;2022-11-23T19:46:10;8.80;99.90
14521;DHT22;7347;50.844;4.490;2022-11-23T19:48:37;8.80;99.90
14521;DHT22;7347;50.844;4.490;2022-11-23T19:51:06;8.80;99.90
14521;DHT22;7347;50.844;4.490;2022-11-23T19:53:35;8.80;99.90
14521;DHT22;7347;50.844;4.490;2022-11-23T19:56:04;8.80;99.90
14521;DHT22;7347;50.844;4.490;2022-11-23T19:58:32;8.80;99.90
14521;DHT22;7347;50.844;4.490;2022-11-23T20:00:59;8.80;99.90
14521;DHT22;7347;50.844;4.490;2022-11-23T20:03:26;8.70;99.90
14521;DHT22;7347;50.844;4.490;2022-11-23T20:05:54;8.80;99.90
14521;DHT22;7347;50.844;4.490;2022-11-23T20:08:21;8.70;99.90
14521;DHT22;7347;50.844;4.490;2022-11-23T20:10:50;8.70;99.90
14521;DHT22;7347;50.844;4.490;2022-11-23T20:13:16;8.70;99.90
14521;DHT22;7347;50.844;4.490;2022-11-23T20:15:43;8.60;99.90
14521;DHT22;7347;50.844;4.490;2022-11-23T20:18:11;8.60;99.90
14521;DHT22;7347;50.844;4.490;2022-11-23T20:20:39;8.60;99.90
14521;DHT22;7347;50.844;4.490;2022-11-23T20:23:06;8.60;99.90
14521;DHT22;7347;50.844;4.490;2022-11-23T20:25:34;8.60;99.90
14521;DHT22;7347;50.844;4.490;2022-11-23T20:28:04;8.60;99.90
14521;DHT22;7347;50.844;4.490;2022-11-23T20:30:32;8.60;99.90
14521;DHT22;7347;50.844;4.490;2022-11-23T20:32:58;8.70;99.90
14521;DHT22;7347;50.844;4.490;2022-11-23T20:35:25;8.60;99.90
14521;DHT22;7347;50.844;4.490;2022-11-23T20:37:52;8.70;99.90
14521;DHT22;7347;50.844;4.490;2022-11-23T20:40:19;8.70;99.90
14521;DHT22;7347;50.844;4.490;2022-11-23T20:42:46;8.70;99.90
14521;DHT22;7347;50.844;4.490;2022-11-23T20:45:14;8.70;99.90
14521;DHT22;7347;50.844;4.490;2022-11-23T20:47:41;8.70;99.90
14521;DHT22;7347;50.844;4.490;2022-11-23T20:50:08;8.70;99.90
14521;DHT22;7347;50.844;4.490;2022-11-23T20:52:35;8.70;99.90
14521;DHT22;7347;50.844;4.490;2022-11-23T20:55:02;8.70;99.90
14521;DHT22;7347;50.844;4.490;2022-11-23T20:57:29;8.70;99.90
14521;DHT22;7347;50.844;4.490;2022-11-23T20:59:56;8.70;99.90
14521;DHT22;7347;50.844;4.490;2022-11-23T21:02:24;8.70;99.90
14521;DHT22;7347;50.844;4.490;2022-11-23T21:04:51;8.70;99.90
14521;DHT22;7347;50.844;4.490;2022-11-23T21:07:18;8.70;99.90
14521;DHT22;7347;50.844;4.490;2022-11-23T21:09:45;8.70;99.90
14521;DHT22;7347;50.844;4.490;2022-11-23T21:12:12;8.70;99.90
14521;DHT22;7347;50.844;4.490;2022-11-23T21:14:56;8.70;99.90
14521;DHT22;7347;50.844;4.490;2022-11-23T21:17:24;8.70;99.90
14521;DHT22;7347;50.844;4.490;2022-11-23T21:19:51;8.80;99.90
14521;DHT22;7347;50.844;4.490;2022-11-23T21:22:18;8.80;99.90
14521;DHT22;7347;50.844;4.490;2022-11-23T21:24:44;8.70;99.90
14521;DHT22;7347;50.844;4.490;2022-11-23T21:27:12;8.80;99.90
14521;DHT22;7347;50.844;4.490;2022-11-23T21:29:39;8.70;99.90
14521;DHT22;7347;50.844;4.490;2022-11-23T21:32:08;8.80;99.90
14521;DHT22;7347;50.844;4.490;2022-11-23T21:34:37;8.80;99.90
14521;DHT22;7347;50.844;4.490;2022-11-23T21:37:04;8.80;99.90
14521;DHT22;7347;50.844;4.490;2022-11-23T21:39:31;8.80;99.90
14521;DHT22;7347;50.844;4.490;2022-11-23T21:41:58;8.70;99.90
14521;DHT22;7347;50.844;4.490;2022-11-23T21:44:24;8.70;99.90
14521;DHT22;7347;50.844;4.490;2022-11-23T21:46:51;8.70;99.90
14521;DHT22;7347;50.844;4.490;2022-11-23T21:49:18;8.70;99.90
14521;DHT22;7347;50.844;4.490;2022-11-23T21:51:46;8.80;99.90
14521;DHT22;7347;50.844;4.490;2022-11-23T21:54:13;8.80;99.90
14521;DHT22;7347;50.844;4.490;2022-11-23T21:56:40;8.80;99.90
14521;DHT22;7347;50.844;4.490;2022-11-23T21:59:07;8.80;99.90
14521;DHT22;7347;50.844;4.490;2022-11-23T22:01:35;8.80;99.90
14521;DHT22;7347;50.844;4.490;2022-11-23T22:04:04;8.80;99.90
14521;DHT22;7347;50.844;4.490;2022-11-23T22:06:33;8.80;99.90
